sensor_id;sensor_type;location;lat;lon;timestamp;temperature;humidity
14604;DHT22;7388;51.078;13.740;2023-07-24T00:00:46;26.00;32.90
14604;DHT22;7388;51.078;13.740;2023-07-24T00:03:12;25.90;33.00
14604;DHT22;7388;51.078;13.740;2023-07-24T00:05:38;25.90;32.60
14604;DHT22;7388;51.078;13.740;2023-07-24T00:08:04;25.90;32.80
14604;DHT22;7388;51.078;13.740;2023-07-24T00:10:30;25.80;33.70
14604;DHT22;7388;51.078;13.740;2023-07-24T00:12:56;25.80;33.50
14604;DHT22;7388;51.078;13.740;2023-07-24T00:15:21;25.70;33.70
14604;DHT22;7388;51.078;13.740;2023-07-24T00:17:47;25.70;34.30
14604;DHT22;7388;51.078;13.740;2023-07-24T00:20:13;25.60;34.20
14604;DHT22;7388;51.078;13.740;2023-07-24T00:22:39;25.60;34.50
14604;DHT22;7388;51.078;13.740;2023-07-24T00:25:07;25.50;34.00
14604;DHT22;7388;51.078;13.740;2023-07-24T00:27:34;25.50;34.80
14604;DHT22;7388;51.078;13.740;2023-07-24T00:30:00;25.50;34.90
14604;DHT22;7388;51.078;13.740;2023-07-24T00:32:26;25.40;33.90
14604;DHT22;7388;51.078;13.740;2023-07-24T00:34:51;25.50;33.40
14604;DHT22;7388;51.078;13.740;2023-07-24T00:37:17;25.50;34.20
14604;DHT22;7388;51.078;13.740;2023-07-24T00:39:43;25.40;34.20
14604;DHT22;7388;51.078;13.740;2023-07-24T00:42:09;25.40;34.20
14604;DHT22;7388;51.078;13.740;2023-07-24T00:44:35;25.50;34.40
14604;DHT22;7388;51.078;13.740;2023-07-24T00:47:02;25.40;34.40
14604;DHT22;7388;51.078;13.740;2023-07-24T00:49:27;25.50;34.90
14604;DHT22;7388;51.078;13.740;2023-07-24T00:51:53;25.40;35.20
14604;DHT22;7388;51.078;13.740;2023-07-24T00:54:19;25.40;35.40
14604;DHT22;7388;51.078;13.740;2023-07-24T00:56:46;25.40;35.50
14604;DHT22;7388;51.078;13.740;2023-07-24T00:59:12;25.40;35.20
14604;DHT22;7388;51.078;13.740;2023-07-24T01:01:40;25.40;35.20
14604;DHT22;7388;51.078;13.740;2023-07-24T01:04:07;25.40;35.80
14604;DHT22;7388;51.078;13.740;2023-07-24T01:06:33;25.30;35.90
14604;DHT22;7388;51.078;13.740;2023-07-24T01:08:59;25.30;36.20
14604;DHT22;7388;51.078;13.740;2023-07-24T01:11:29;25.30;36.70
14604;DHT22;7388;51.078;13.740;2023-07-24T01:15:20;25.30;36.40
14604;DHT22;7388;51.078;13.740;2023-07-24T01:17:14;25.30;36.50
14604;DHT22;7388;51.078;13.740;2023-07-24T01:19:49;25.20;36.90
14604;DHT22;7388;51.078;13.740;2023-07-24T01:25:22;25.10;37.20
14604;DHT22;7388;51.078;13.740;2023-07-24T01:27:48;25.00;37.10
14604;DHT22;7388;51.078;13.740;2023-07-24T01:30:17;24.90;37.00
14604;DHT22;7388;51.078;13.740;2023-07-24T01:32:43;24.90;37.00
14604;DHT22;7388;51.078;13.740;2023-07-24T01:35:09;24.90;36.70
14604;DHT22;7388;51.078;13.740;2023-07-24T01:37:35;24.90;36.50
14604;DHT22;7388;51.078;13.740;2023-07-24T01:40:03;24.90;37.00
14604;DHT22;7388;51.078;13.740;2023-07-24T01:42:30;24.90;37.20
14604;DHT22;7388;51.078;13.740;2023-07-24T01:44:56;24.90;36.80
14604;DHT22;7388;51.078;13.740;2023-07-24T01:47:22;24.80;36.70
14604;DHT22;7388;51.078;13.740;2023-07-24T01:49:48;24.80;36.00
14604;DHT22;7388;51.078;13.740;2023-07-24T01:52:14;24.90;35.40
14604;DHT22;7388;51.078;13.740;2023-07-24T01:54:40;24.90;35.30
14604;DHT22;7388;51.078;13.740;2023-07-24T01:57:06;24.90;35.50
14604;DHT22;7388;51.078;13.740;2023-07-24T01:59:32;24.90;35.90
14604;DHT22;7388;51.078;13.740;2023-07-24T02:01:58;24.90;36.20
14604;DHT22;7388;51.078;13.740;2023-07-24T02:04:24;24.90;36.00
14604;DHT22;7388;51.078;13.740;2023-07-24T02:06:50;24.90;35.90
14604;DHT22;7388;51.078;13.740;2023-07-24T02:09:18;24.90;36.10
14604;DHT22;7388;51.078;13.740;2023-07-24T02:11:45;24.90;36.30
14604;DHT22;7388;51.078;13.740;2023-07-24T02:14:12;24.90;36.60
14604;DHT22;7388;51.078;13.740;2023-07-24T02:16:38;24.90;36.60
14604;DHT22;7388;51.078;13.740;2023-07-24T02:19:04;25.00;37.50
14604;DHT22;7388;51.078;13.740;2023-07-24T02:21:31;24.90;36.90
14604;DHT22;7388;51.078;13.740;2023-07-24T02:23:57;24.90;37.50
14604;DHT22;7388;51.078;13.740;2023-07-24T02:26:23;24.80;36.70
14604;DHT22;7388;51.078;13.740;2023-07-24T02:28:48;24.80;37.10
14604;DHT22;7388;51.078;13.740;2023-07-24T02:31:14;24.80;37.10
14604;DHT22;7388;51.078;13.740;2023-07-24T02:33:40;24.80;37.50
14604;DHT22;7388;51.078;13.740;2023-07-24T02:36:06;24.80;37.40
14604;DHT22;7388;51.078;13.740;2023-07-24T02:38:32;24.70;37.70
14604;DHT22;7388;51.078;13.740;2023-07-24T02:40:57;24.70;37.70
14604;DHT22;7388;51.078;13.740;2023-07-24T02:43:23;24.70;37.90
14604;DHT22;7388;51.078;13.740;2023-07-24T02:45:49;24.70;38.20
14604;DHT22;7388;51.078;13.740;2023-07-24T02:48:15;24.60;38.50
14604;DHT22;7388;51.078;13.740;2023-07-24T02:50:41;24.60;37.90
14604;DHT22;7388;51.078;13.740;2023-07-24T02:53:07;24.50;38.20
14604;DHT22;7388;51.078;13.740;2023-07-24T02:55:32;24.50;38.40
14604;DHT22;7388;51.078;13.740;2023-07-24T02:57:58;24.50;38.40
14604;DHT22;7388;51.078;13.740;2023-07-24T03:00:24;24.40;37.70
14604;DHT22;7388;51.078;13.740;2023-07-24T03:02:51;24.40;38.10
14604;DHT22;7388;51.078;13.740;2023-07-24T03:05:17;24.50;38.20
14604;DHT22;7388;51.078;13.740;2023-07-24T03:07:43;24.50;38.00
14604;DHT22;7388;51.078;13.740;2023-07-24T03:10:09;24.50;38.30
14604;DHT22;7388;51.078;13.740;2023-07-24T03:12:35;24.50;38.40
14604;DHT22;7388;51.078;13.740;2023-07-24T03:15:01;24.40;38.20
14604;DHT22;7388;51.078;13.740;2023-07-24T03:17:27;24.50;38.10
14604;DHT22;7388;51.078;13.740;2023-07-24T03:19:54;24.50;37.00
14604;DHT22;7388;51.078;13.740;2023-07-24T03:22:20;24.50;37.30
14604;DHT22;7388;51.078;13.740;2023-07-24T03:24:46;24.50;37.10
14604;DHT22;7388;51.078;13.740;2023-07-24T03:27:12;24.60;36.80
14604;DHT22;7388;51.078;13.740;2023-07-24T03:29:38;24.70;37.60
14604;DHT22;7388;51.078;13.740;2023-07-24T03:32:06;24.70;37.70
14604;DHT22;7388;51.078;13.740;2023-07-24T03:34:32;24.80;37.40
14604;DHT22;7388;51.078;13.740;2023-07-24T03:36:58;24.80;36.80
14604;DHT22;7388;51.078;13.740;2023-07-24T03:39:24;24.90;37.10
14604;DHT22;7388;51.078;13.740;2023-07-24T03:41:50;24.90;37.00
14604;DHT22;7388;51.078;13.740;2023-07-24T03:44:16;24.80;37.10
14604;DHT22;7388;51.078;13.740;2023-07-24T03:46:41;24.90;36.70
14604;DHT22;7388;51.078;13.740;2023-07-24T03:49:07;24.90;36.50
14604;DHT22;7388;51.078;13.740;2023-07-24T03:51:33;24.90;36.30
14604;DHT22;7388;51.078;13.740;2023-07-24T03:53:59;25.00;36.50
14604;DHT22;7388;51.078;13.740;2023-07-24T03:56:25;25.00;36.50
14604;DHT22;7388;51.078;13.740;2023-07-24T03:58:51;25.00;36.00
14604;DHT22;7388;51.078;13.740;2023-07-24T04:01:17;25.00;36.00
14604;DHT22;7388;51.078;13.740;2023-07-24T04:03:43;25.00;35.90
14604;DHT22;7388;51.078;13.740;2023-07-24T04:06:09;25.00;35.70
14604;DHT22;7388;51.078;13.740;2023-07-24T04:08:35;25.00;35.90
14604;DHT22;7388;51.078;13.740;2023-07-24T04:11:01;25.10;36.30
14604;DHT22;7388;51.078;13.740;2023-07-24T04:13:26;25.10;36.10
14604;DHT22;7388;51.078;13.740;2023-07-24T04:15:52;25.10;36.20
14604;DHT22;7388;51.078;13.740;2023-07-24T04:18:18;25.10;36.30
14604;DHT22;7388;51.078;13.740;2023-07-24T04:20:44;25.10;36.50
14604;DHT22;7388;51.078;13.740;2023-07-24T04:23:10;25.10;36.60
14604;DHT22;7388;51.078;13.740;2023-07-24T04:25:35;25.10;36.60
14604;DHT22;7388;51.078;13.740;2023-07-24T04:28:01;25.10;36.70
14604;DHT22;7388;51.078;13.740;2023-07-24T04:30:27;25.10;36.70
14604;DHT22;7388;51.078;13.740;2023-07-24T04:32:53;25.10;36.70
14604;DHT22;7388;51.078;13.740;2023-07-24T04:35:18;25.20;36.60
14604;DHT22;7388;51.078;13.740;2023-07-24T04:37:44;25.20;36.40
14604;DHT22;7388;51.078;13.740;2023-07-24T04:40:10;25.20;36.20
14604;DHT22;7388;51.078;13.740;2023-07-24T04:42:36;25.20;36.30
14604;DHT22;7388;51.078;13.740;2023-07-24T04:45:03;25.20;36.50
14604;DHT22;7388;51.078;13.740;2023-07-24T04:47:29;25.30;36.30
14604;DHT22;7388;51.078;13.740;2023-07-24T04:49:54;25.30;35.90
14604;DHT22;7388;51.078;13.740;2023-07-24T04:52:20;25.30;35.80
14604;DHT22;7388;51.078;13.740;2023-07-24T04:54:46;25.40;35.90
14604;DHT22;7388;51.078;13.740;2023-07-24T04:57:12;25.40;36.40
14604;DHT22;7388;51.078;13.740;2023-07-24T04:59:38;25.40;36.50
14604;DHT22;7388;51.078;13.740;2023-07-24T05:02:04;25.40;36.50
14604;DHT22;7388;51.078;13.740;2023-07-24T05:04:29;25.50;36.80
14604;DHT22;7388;51.078;13.740;2023-07-24T05:06:55;25.60;36.80
14604;DHT22;7388;51.078;13.740;2023-07-24T05:09:21;25.60;36.40
14604;DHT22;7388;51.078;13.740;2023-07-24T05:11:47;25.60;36.60
14604;DHT22;7388;51.078;13.740;2023-07-24T05:14:13;25.70;36.50
14604;DHT22;7388;51.078;13.740;2023-07-24T05:16:38;25.80;36.40
14604;DHT22;7388;51.078;13.740;2023-07-24T05:19:04;25.80;36.00
14604;DHT22;7388;51.078;13.740;2023-07-24T05:21:30;25.90;35.40
14604;DHT22;7388;51.078;13.740;2023-07-24T05:23:56;25.90;35.70
14604;DHT22;7388;51.078;13.740;2023-07-24T05:26:22;25.90;35.40
14604;DHT22;7388;51.078;13.740;2023-07-24T05:28:48;26.00;36.00
14604;DHT22;7388;51.078;13.740;2023-07-24T05:31:14;26.00;36.30
14604;DHT22;7388;51.078;13.740;2023-07-24T05:33:39;26.00;35.80
14604;DHT22;7388;51.078;13.740;2023-07-24T05:36:05;26.00;36.30
14604;DHT22;7388;51.078;13.740;2023-07-24T05:38:31;26.10;36.80
14604;DHT22;7388;51.078;13.740;2023-07-24T05:40:58;26.10;36.90
14604;DHT22;7388;51.078;13.740;2023-07-24T05:43:25;26.10;36.90
14604;DHT22;7388;51.078;13.740;2023-07-24T05:45:51;26.10;36.60
14604;DHT22;7388;51.078;13.740;2023-07-24T05:48:17;26.20;36.10
14604;DHT22;7388;51.078;13.740;2023-07-24T05:50:43;26.20;35.90
14604;DHT22;7388;51.078;13.740;2023-07-24T05:53:09;26.20;35.90
14604;DHT22;7388;51.078;13.740;2023-07-24T05:55:35;26.20;36.00
14604;DHT22;7388;51.078;13.740;2023-07-24T05:58:01;26.30;36.00
14604;DHT22;7388;51.078;13.740;2023-07-24T06:00:27;26.30;36.50
14604;DHT22;7388;51.078;13.740;2023-07-24T06:02:53;26.30;36.20
14604;DHT22;7388;51.078;13.740;2023-07-24T06:05:20;26.40;36.10
14604;DHT22;7388;51.078;13.740;2023-07-24T06:07:46;26.40;35.90
14604;DHT22;7388;51.078;13.740;2023-07-24T06:10:12;26.50;35.80
14604;DHT22;7388;51.078;13.740;2023-07-24T06:12:38;26.50;36.00
14604;DHT22;7388;51.078;13.740;2023-07-24T06:15:04;26.60;36.20
14604;DHT22;7388;51.078;13.740;2023-07-24T06:17:30;26.70;35.90
14604;DHT22;7388;51.078;13.740;2023-07-24T06:19:56;26.70;36.20
14604;DHT22;7388;51.078;13.740;2023-07-24T06:22:22;26.90;36.10
14604;DHT22;7388;51.078;13.740;2023-07-24T06:24:48;26.90;35.60
14604;DHT22;7388;51.078;13.740;2023-07-24T06:27:15;27.10;36.70
14604;DHT22;7388;51.078;13.740;2023-07-24T06:29:41;27.20;36.00
14604;DHT22;7388;51.078;13.740;2023-07-24T06:32:07;27.40;35.00
14604;DHT22;7388;51.078;13.740;2023-07-24T06:34:33;27.50;35.20
14604;DHT22;7388;51.078;13.740;2023-07-24T06:36:59;27.60;35.40
14604;DHT22;7388;51.078;13.740;2023-07-24T06:39:25;27.70;35.50
14604;DHT22;7388;51.078;13.740;2023-07-24T06:41:54;27.80;35.00
14604;DHT22;7388;51.078;13.740;2023-07-24T06:44:21;27.90;34.40
14604;DHT22;7388;51.078;13.740;2023-07-24T06:46:47;28.00;33.80
14604;DHT22;7388;51.078;13.740;2023-07-24T06:49:13;28.10;34.80
14604;DHT22;7388;51.078;13.740;2023-07-24T06:51:39;28.20;32.90
14604;DHT22;7388;51.078;13.740;2023-07-24T06:54:05;28.30;32.60
14604;DHT22;7388;51.078;13.740;2023-07-24T06:56:31;28.40;31.90
14604;DHT22;7388;51.078;13.740;2023-07-24T06:58:57;28.50;31.70
14604;DHT22;7388;51.078;13.740;2023-07-24T07:01:23;28.60;31.30
14604;DHT22;7388;51.078;13.740;2023-07-24T07:03:49;28.60;31.30
14604;DHT22;7388;51.078;13.740;2023-07-24T07:06:15;28.70;31.10
14604;DHT22;7388;51.078;13.740;2023-07-24T07:08:41;28.80;31.00
14604;DHT22;7388;51.078;13.740;2023-07-24T07:11:07;28.80;31.10
14604;DHT22;7388;51.078;13.740;2023-07-24T07:13:33;28.90;30.90
14604;DHT22;7388;51.078;13.740;2023-07-24T07:15:58;29.00;32.00
14604;DHT22;7388;51.078;13.740;2023-07-24T07:18:24;29.10;31.30
14604;DHT22;7388;51.078;13.740;2023-07-24T07:20:52;29.10;30.90
14604;DHT22;7388;51.078;13.740;2023-07-24T07:23:18;29.20;31.30
14604;DHT22;7388;51.078;13.740;2023-07-24T07:25:44;29.20;31.50
14604;DHT22;7388;51.078;13.740;2023-07-24T07:28:14;29.30;30.80
14604;DHT22;7388;51.078;13.740;2023-07-24T07:30:41;29.40;30.30
14604;DHT22;7388;51.078;13.740;2023-07-24T07:33:07;29.40;32.60
14604;DHT22;7388;51.078;13.740;2023-07-24T07:35:34;29.40;30.70
14604;DHT22;7388;51.078;13.740;2023-07-24T07:38:00;29.60;28.60
14604;DHT22;7388;51.078;13.740;2023-07-24T07:40:26;29.50;28.80
14604;DHT22;7388;51.078;13.740;2023-07-24T07:42:56;29.60;29.60
14604;DHT22;7388;51.078;13.740;2023-07-24T07:45:23;29.50;28.20
14604;DHT22;7388;51.078;13.740;2023-07-24T07:47:49;29.60;27.70
14604;DHT22;7388;51.078;13.740;2023-07-24T07:50:15;29.60;28.60
14604;DHT22;7388;51.078;13.740;2023-07-24T07:52:41;29.60;29.60
14604;DHT22;7388;51.078;13.740;2023-07-24T07:55:07;29.70;28.60
14604;DHT22;7388;51.078;13.740;2023-07-24T07:57:37;29.70;28.90
14604;DHT22;7388;51.078;13.740;2023-07-24T08:00:03;29.70;29.30
14604;DHT22;7388;51.078;13.740;2023-07-24T08:02:29;29.80;27.90
14604;DHT22;7388;51.078;13.740;2023-07-24T08:04:57;29.90;27.80
14604;DHT22;7388;51.078;13.740;2023-07-24T08:07:23;30.00;28.80
14604;DHT22;7388;51.078;13.740;2023-07-24T08:09:49;30.10;28.40
14604;DHT22;7388;51.078;13.740;2023-07-24T08:12:15;30.20;27.70
14604;DHT22;7388;51.078;13.740;2023-07-24T08:14:41;30.20;26.90
14604;DHT22;7388;51.078;13.740;2023-07-24T08:17:07;30.30;27.80
14604;DHT22;7388;51.078;13.740;2023-07-24T08:19:32;30.40;27.40
14604;DHT22;7388;51.078;13.740;2023-07-24T08:21:58;30.50;27.40
14604;DHT22;7388;51.078;13.740;2023-07-24T08:24:24;30.70;27.40
14604;DHT22;7388;51.078;13.740;2023-07-24T08:26:50;30.80;27.60
14604;DHT22;7388;51.078;13.740;2023-07-24T08:29:16;31.00;27.00
14604;DHT22;7388;51.078;13.740;2023-07-24T08:31:42;31.00;26.10
14604;DHT22;7388;51.078;13.740;2023-07-24T08:34:08;31.10;26.70
14604;DHT22;7388;51.078;13.740;2023-07-24T08:36:33;31.30;27.50
14604;DHT22;7388;51.078;13.740;2023-07-24T08:38:59;31.40;27.60
14604;DHT22;7388;51.078;13.740;2023-07-24T08:41:25;31.60;25.70
14604;DHT22;7388;51.078;13.740;2023-07-24T08:43:51;31.70;25.70
14604;DHT22;7388;51.078;13.740;2023-07-24T08:46:19;31.80;24.90
14604;DHT22;7388;51.078;13.740;2023-07-24T08:48:46;31.80;24.10
14604;DHT22;7388;51.078;13.740;2023-07-24T08:51:13;31.70;25.00
14604;DHT22;7388;51.078;13.740;2023-07-24T08:53:40;31.70;23.80
14604;DHT22;7388;51.078;13.740;2023-07-24T08:56:09;31.70;23.80
14604;DHT22;7388;51.078;13.740;2023-07-24T08:58:36;31.70;25.10
14604;DHT22;7388;51.078;13.740;2023-07-24T09:01:03;31.80;24.70
14604;DHT22;7388;51.078;13.740;2023-07-24T09:03:30;31.80;25.00
14604;DHT22;7388;51.078;13.740;2023-07-24T09:05:57;31.90;26.10
14604;DHT22;7388;51.078;13.740;2023-07-24T09:08:33;31.90;27.10
14604;DHT22;7388;51.078;13.740;2023-07-24T09:10:59;32.00;25.80
14604;DHT22;7388;51.078;13.740;2023-07-24T09:13:26;31.90;25.60
14604;DHT22;7388;51.078;13.740;2023-07-24T09:15:52;31.90;26.10
14604;DHT22;7388;51.078;13.740;2023-07-24T09:18:18;32.00;26.70
14604;DHT22;7388;51.078;13.740;2023-07-24T09:20:45;32.00;25.00
14604;DHT22;7388;51.078;13.740;2023-07-24T09:23:12;32.00;25.40
14604;DHT22;7388;51.078;13.740;2023-07-24T09:25:40;32.10;25.00
14604;DHT22;7388;51.078;13.740;2023-07-24T09:28:16;32.10;26.20
14604;DHT22;7388;51.078;13.740;2023-07-24T09:30:55;32.00;26.10
14604;DHT22;7388;51.078;13.740;2023-07-24T09:33:23;32.00;26.20
14604;DHT22;7388;51.078;13.740;2023-07-24T09:36:03;32.00;25.80
14604;DHT22;7388;51.078;13.740;2023-07-24T09:38:29;32.00;26.10
14604;DHT22;7388;51.078;13.740;2023-07-24T09:40:56;31.90;25.20
14604;DHT22;7388;51.078;13.740;2023-07-24T09:43:22;31.90;25.30
14604;DHT22;7388;51.078;13.740;2023-07-24T09:45:49;31.90;25.80
14604;DHT22;7388;51.078;13.740;2023-07-24T09:48:16;31.90;27.20
14604;DHT22;7388;51.078;13.740;2023-07-24T09:50:45;32.00;26.90
14604;DHT22;7388;51.078;13.740;2023-07-24T09:53:39;32.00;26.60
14604;DHT22;7388;51.078;13.740;2023-07-24T09:56:09;32.00;27.50
14604;DHT22;7388;51.078;13.740;2023-07-24T09:58:37;32.00;26.80
14604;DHT22;7388;51.078;13.740;2023-07-24T10:01:06;32.00;26.40
14604;DHT22;7388;51.078;13.740;2023-07-24T10:03:45;32.00;27.40
14604;DHT22;7388;51.078;13.740;2023-07-24T10:06:11;32.00;27.00
14604;DHT22;7388;51.078;13.740;2023-07-24T10:08:40;32.00;27.30
14604;DHT22;7388;51.078;13.740;2023-07-24T10:11:08;32.00;27.20
14604;DHT22;7388;51.078;13.740;2023-07-24T10:13:36;31.90;26.60
14604;DHT22;7388;51.078;13.740;2023-07-24T10:16:02;31.90;26.20
14604;DHT22;7388;51.078;13.740;2023-07-24T10:18:30;31.90;26.80
14604;DHT22;7388;51.078;13.740;2023-07-24T10:21:05;31.90;26.40
14604;DHT22;7388;51.078;13.740;2023-07-24T10:23:45;31.90;26.40
14604;DHT22;7388;51.078;13.740;2023-07-24T10:26:12;31.90;26.50
14604;DHT22;7388;51.078;13.740;2023-07-24T10:28:39;31.90;26.00
14604;DHT22;7388;51.078;13.740;2023-07-24T10:31:08;31.90;26.00
14604;DHT22;7388;51.078;13.740;2023-07-24T10:33:47;31.90;26.30
14604;DHT22;7388;51.078;13.740;2023-07-24T10:36:17;31.90;27.40
14604;DHT22;7388;51.078;13.740;2023-07-24T10:38:45;31.90;26.90
14604;DHT22;7388;51.078;13.740;2023-07-24T10:41:12;31.80;26.40
14604;DHT22;7388;51.078;13.740;2023-07-24T10:43:49;31.80;29.00
14604;DHT22;7388;51.078;13.740;2023-07-24T10:46:16;31.60;30.80
14604;DHT22;7388;51.078;13.740;2023-07-24T10:48:47;31.30;31.50
14604;DHT22;7388;51.078;13.740;2023-07-24T10:51:14;31.00;32.20
14604;DHT22;7388;51.078;13.740;2023-07-24T10:53:45;30.80;32.00
14604;DHT22;7388;51.078;13.740;2023-07-24T10:56:11;30.70;32.90
14604;DHT22;7388;51.078;13.740;2023-07-24T10:58:37;30.60;33.20
14604;DHT22;7388;51.078;13.740;2023-07-24T11:01:06;30.60;34.20
14604;DHT22;7388;51.078;13.740;2023-07-24T11:03:35;30.50;34.30
14604;DHT22;7388;51.078;13.740;2023-07-24T11:06:02;30.50;34.40
14604;DHT22;7388;51.078;13.740;2023-07-24T11:08:28;30.50;33.70
14604;DHT22;7388;51.078;13.740;2023-07-24T11:10:56;30.40;33.10
14604;DHT22;7388;51.078;13.740;2023-07-24T11:13:27;30.50;33.60
14604;DHT22;7388;51.078;13.740;2023-07-24T11:15:53;30.50;33.00
14604;DHT22;7388;51.078;13.740;2023-07-24T11:18:20;30.60;32.90
14604;DHT22;7388;51.078;13.740;2023-07-24T11:20:55;30.70;33.20
14604;DHT22;7388;51.078;13.740;2023-07-24T11:23:25;30.80;33.70
14604;DHT22;7388;51.078;13.740;2023-07-24T11:25:52;30.90;32.50
14604;DHT22;7388;51.078;13.740;2023-07-24T11:28:18;31.00;31.10
14604;DHT22;7388;51.078;13.740;2023-07-24T11:30:44;31.00;30.90
14604;DHT22;7388;51.078;13.740;2023-07-24T11:33:12;31.00;32.10
14604;DHT22;7388;51.078;13.740;2023-07-24T11:35:39;31.10;32.10
14604;DHT22;7388;51.078;13.740;2023-07-24T11:38:09;31.00;33.20
14604;DHT22;7388;51.078;13.740;2023-07-24T11:43:02;30.80;30.50
14604;DHT22;7388;51.078;13.740;2023-07-24T11:45:29;30.80;30.30
14604;DHT22;7388;51.078;13.740;2023-07-24T11:47:55;30.70;29.70
14604;DHT22;7388;51.078;13.740;2023-07-24T11:50:23;30.70;29.80
14604;DHT22;7388;51.078;13.740;2023-07-24T11:52:50;30.70;30.10
14604;DHT22;7388;51.078;13.740;2023-07-24T11:55:30;30.60;30.00
14604;DHT22;7388;51.078;13.740;2023-07-24T11:58:00;30.70;29.40
14604;DHT22;7388;51.078;13.740;2023-07-24T12:00:26;30.70;29.40
14604;DHT22;7388;51.078;13.740;2023-07-24T12:02:58;30.70;29.90
14604;DHT22;7388;51.078;13.740;2023-07-24T12:05:24;30.70;29.90
14604;DHT22;7388;51.078;13.740;2023-07-24T12:07:53;30.70;30.00
14604;DHT22;7388;51.078;13.740;2023-07-24T12:10:27;30.80;30.80
14604;DHT22;7388;51.078;13.740;2023-07-24T12:12:53;30.80;31.10
14604;DHT22;7388;51.078;13.740;2023-07-24T12:15:19;30.80;31.10
14604;DHT22;7388;51.078;13.740;2023-07-24T12:17:45;30.80;31.80
14604;DHT22;7388;51.078;13.740;2023-07-24T12:20:11;30.90;31.50
14604;DHT22;7388;51.078;13.740;2023-07-24T12:22:38;30.90;31.90
14604;DHT22;7388;51.078;13.740;2023-07-24T12:25:05;30.90;32.10
14604;DHT22;7388;51.078;13.740;2023-07-24T12:27:32;30.80;32.40
14604;DHT22;7388;51.078;13.740;2023-07-24T12:29:58;30.50;32.40
14604;DHT22;7388;51.078;13.740;2023-07-24T12:32:24;30.80;31.80
14604;DHT22;7388;51.078;13.740;2023-07-24T12:34:51;30.80;32.10
14604;DHT22;7388;51.078;13.740;2023-07-24T12:37:18;30.70;33.60
14604;DHT22;7388;51.078;13.740;2023-07-24T12:39:47;30.60;34.20
14604;DHT22;7388;51.078;13.740;2023-07-24T12:42:14;30.50;31.70
14604;DHT22;7388;51.078;13.740;2023-07-24T12:44:40;30.40;31.50
14604;DHT22;7388;51.078;13.740;2023-07-24T12:47:06;30.40;32.60
14604;DHT22;7388;51.078;13.740;2023-07-24T12:49:32;30.40;32.70
14604;DHT22;7388;51.078;13.740;2023-07-24T12:51:58;30.30;32.30
14604;DHT22;7388;51.078;13.740;2023-07-24T12:54:24;30.10;32.10
14604;DHT22;7388;51.078;13.740;2023-07-24T12:56:50;29.90;32.30
14604;DHT22;7388;51.078;13.740;2023-07-24T12:59:17;29.60;34.30
14604;DHT22;7388;51.078;13.740;2023-07-24T13:01:44;29.40;35.00
14604;DHT22;7388;51.078;13.740;2023-07-24T13:04:10;29.00;36.30
14604;DHT22;7388;51.078;13.740;2023-07-24T13:06:35;28.60;37.60
14604;DHT22;7388;51.078;13.740;2023-07-24T13:09:02;28.30;37.80
14604;DHT22;7388;51.078;13.740;2023-07-24T13:11:28;28.00;39.00
14604;DHT22;7388;51.078;13.740;2023-07-24T13:13:55;27.80;39.60
14604;DHT22;7388;51.078;13.740;2023-07-24T13:16:21;27.50;40.20
14604;DHT22;7388;51.078;13.740;2023-07-24T13:18:47;27.30;41.20
14604;DHT22;7388;51.078;13.740;2023-07-24T13:21:13;27.10;42.10
14604;DHT22;7388;51.078;13.740;2023-07-24T13:23:40;27.00;42.60
14604;DHT22;7388;51.078;13.740;2023-07-24T13:26:06;27.00;42.80
14604;DHT22;7388;51.078;13.740;2023-07-24T13:28:34;26.90;42.90
14604;DHT22;7388;51.078;13.740;2023-07-24T13:31:14;26.90;43.10
14604;DHT22;7388;51.078;13.740;2023-07-24T13:33:40;27.00;43.80
14604;DHT22;7388;51.078;13.740;2023-07-24T13:36:06;27.00;43.90
14604;DHT22;7388;51.078;13.740;2023-07-24T13:38:32;27.00;43.80
14604;DHT22;7388;51.078;13.740;2023-07-24T13:40:58;27.00;44.20
14604;DHT22;7388;51.078;13.740;2023-07-24T13:43:36;27.00;44.40
14604;DHT22;7388;51.078;13.740;2023-07-24T13:46:02;27.10;44.10
14604;DHT22;7388;51.078;13.740;2023-07-24T13:48:33;27.20;44.00
14604;DHT22;7388;51.078;13.740;2023-07-24T13:50:58;27.20;43.80
14604;DHT22;7388;51.078;13.740;2023-07-24T13:53:24;27.40;43.70
14604;DHT22;7388;51.078;13.740;2023-07-24T13:55:50;27.50;43.50
14604;DHT22;7388;51.078;13.740;2023-07-24T13:58:16;27.60;43.10
14604;DHT22;7388;51.078;13.740;2023-07-24T14:00:42;27.70;41.20
14604;DHT22;7388;51.078;13.740;2023-07-24T14:03:08;27.80;41.50
14604;DHT22;7388;51.078;13.740;2023-07-24T14:05:35;27.90;41.40
14604;DHT22;7388;51.078;13.740;2023-07-24T14:08:04;27.90;41.20
14604;DHT22;7388;51.078;13.740;2023-07-24T14:10:30;28.00;41.60
14604;DHT22;7388;51.078;13.740;2023-07-24T14:12:56;28.20;41.40
14604;DHT22;7388;51.078;13.740;2023-07-24T14:15:22;28.40;40.10
14604;DHT22;7388;51.078;13.740;2023-07-24T14:17:48;28.50;38.90
14604;DHT22;7388;51.078;13.740;2023-07-24T14:20:13;28.70;38.50
14604;DHT22;7388;51.078;13.740;2023-07-24T14:22:39;28.80;38.80
14604;DHT22;7388;51.078;13.740;2023-07-24T14:25:05;29.00;38.50
14604;DHT22;7388;51.078;13.740;2023-07-24T14:27:31;29.10;38.20
14604;DHT22;7388;51.078;13.740;2023-07-24T14:29:57;29.10;36.90
14604;DHT22;7388;51.078;13.740;2023-07-24T14:32:23;29.10;37.30
14604;DHT22;7388;51.078;13.740;2023-07-24T14:34:50;29.20;37.40
14604;DHT22;7388;51.078;13.740;2023-07-24T14:37:16;29.30;37.10
14604;DHT22;7388;51.078;13.740;2023-07-24T14:39:42;29.30;37.20
14604;DHT22;7388;51.078;13.740;2023-07-24T14:42:12;29.40;37.40
14604;DHT22;7388;51.078;13.740;2023-07-24T14:44:39;29.40;37.20
14604;DHT22;7388;51.078;13.740;2023-07-24T14:47:04;29.40;36.40
14604;DHT22;7388;51.078;13.740;2023-07-24T14:49:30;29.30;36.20
14604;DHT22;7388;51.078;13.740;2023-07-24T14:51:56;29.90;35.80
14604;DHT22;7388;51.078;13.740;2023-07-24T14:54:22;29.20;35.90
14604;DHT22;7388;51.078;13.740;2023-07-24T14:56:49;29.20;36.00
14604;DHT22;7388;51.078;13.740;2023-07-24T14:59:15;29.20;35.10
14604;DHT22;7388;51.078;13.740;2023-07-24T15:01:40;29.30;35.90
14604;DHT22;7388;51.078;13.740;2023-07-24T15:04:06;29.40;35.90
14604;DHT22;7388;51.078;13.740;2023-07-24T15:06:32;29.60;34.80
14604;DHT22;7388;51.078;13.740;2023-07-24T15:08:58;29.70;35.10
14604;DHT22;7388;51.078;13.740;2023-07-24T15:11:24;29.70;35.70
14604;DHT22;7388;51.078;13.740;2023-07-24T15:13:51;30.00;35.40
14604;DHT22;7388;51.078;13.740;2023-07-24T15:16:17;30.20;34.70
14604;DHT22;7388;51.078;13.740;2023-07-24T15:18:43;30.20;34.20
14604;DHT22;7388;51.078;13.740;2023-07-24T15:21:09;30.30;34.80
14604;DHT22;7388;51.078;13.740;2023-07-24T15:23:35;30.30;34.60
14604;DHT22;7388;51.078;13.740;2023-07-24T15:26:01;30.30;34.70
14604;DHT22;7388;51.078;13.740;2023-07-24T15:28:27;30.30;34.00
14604;DHT22;7388;51.078;13.740;2023-07-24T15:30:54;30.30;34.00
14604;DHT22;7388;51.078;13.740;2023-07-24T15:33:19;30.30;34.70